Time;durP1;ratioP1;P1;durP2;ratioP2;P2;SDS_P1;SDS_P2;PMS_P1;PMS_P2;Temp;Humidity;BMP_temperature;BMP_pressure;BME280_temperature;BME280_humidity;BME280_pressure;Samples;Min_cycle;Max_cycle;Signal;HPM_P1;HPM_P2
2023/09/06 00:00:33;;;;;;;5.82;3.70;;;18.70;99.90;;;;;;5059214;28;20616;-65
2023/09/06 00:02:59;;;;;;;4.70;3.50;;;18.70;99.90;;;;;;5055155;28;20033;-65
2023/09/06 00:05:26;;;;;;;3.22;2.85;;;18.70;99.90;;;;;;5039250;28;20377;-65
2023/09/06 00:07:52;;;;;;;7.57;2.78;;;18.70;99.90;;;;;;5055296;28;20044;-65
2023/09/06 00:10:18;;;;;;;2.97;2.65;;;18.70;99.90;;;;;;5059004;28;20029;-65
2023/09/06 00:12:45;;;;;;;3.03;2.72;;;18.70;99.90;;;;;;5055225;28;20025;-65
2023/09/06 00:15:12;;;;;;;2.97;2.65;;;18.70;99.90;;;;;;5057993;28;20024;-65
2023/09/06 00:17:38;;;;;;;3.28;2.53;;;18.60;99.90;;;;;;5055941;28;20433;-65
2023/09/06 00:20:26;;;;;;;3.85;3.28;;;18.70;99.90;;;;;;5056659;28;20627;-65
2023/09/06 00:22:59;;;;;;;6.18;3.20;;;18.60;99.90;;;;;;5053210;28;20126;-65
2023/09/06 00:25:26;;;;;;;3.35;2.58;;;18.60;99.90;;;;;;5058183;28;20032;-65
2023/09/06 00:27:53;;;;;;;4.10;3.03;;;18.60;99.90;;;;;;5054988;28;20083;-65
2023/09/06 00:30:19;;;;;;;3.45;2.90;;;18.50;99.90;;;;;;5046452;28;20024;-65
2023/09/06 00:32:46;;;;;;;3.17;2.88;;;18.50;99.90;;;;;;5038888;28;20646;-65
2023/09/06 00:35:16;;;;;;;3.47;3.08;;;18.50;99.90;;;;;;5057904;28;20663;-65
2023/09/06 00:37:45;;;;;;;4.65;3.17;;;18.50;99.90;;;;;;5038549;28;20485;-65
2023/09/06 00:40:21;;;;;;;3.58;3.13;;;18.40;99.90;;;;;;5054508;28;20673;-65
2023/09/06 00:42:52;;;;;;;4.60;3.30;;;18.40;99.90;;;;;;5022514;28;20215;-65
2023/09/06 00:45:22;;;;;;;3.70;2.70;;;18.30;99.90;;;;;;5046480;28;20405;-65
2023/09/06 00:47:50;;;;;;;4.43;2.92;;;18.20;99.90;;;;;;5052884;28;20037;-65
2023/09/06 00:50:17;;;;;;;4.57;3.33;;;18.20;99.90;;;;;;5046187;28;20395;-65
2023/09/06 00:52:44;;;;;;;4.60;3.38;;;18.20;99.90;;;;;;5055592;28;20048;-65
2023/09/06 00:55:10;;;;;;;5.20;3.47;;;18.10;99.90;;;;;;5042711;28;20036;-65
2023/09/06 00:57:36;;;;;;;4.43;3.08;;;18.10;99.90;;;;;;5055409;28;20032;-65
2023/09/06 01:00:08;;;;;;;4.20;3.03;;;18.00;99.90;;;;;;5051890;28;20017;-65
2023/09/06 01:02:34;;;;;;;4.55;3.10;;;18.00;99.90;;;;;;5055834;28;20039;-65
2023/09/06 01:05:00;;;;;;;4.07;3.25;;;17.90;99.90;;;;;;5055404;28;20456;-65
2023/09/06 01:07:29;;;;;;;4.38;3.00;;;18.00;99.90;;;;;;5057067;28;20033;-65
2023/09/06 01:09:55;;;;;;;4.47;3.25;;;17.90;99.90;;;;;;5053663;28;20044;-65
2023/09/06 01:12:21;;;;;;;5.80;3.35;;;17.90;99.90;;;;;;5042272;28;20408;-65
2023/09/06 01:14:46;;;;;;;3.30;2.95;;;17.80;99.90;;;;;;5054220;28;20084;-65
2023/09/06 01:17:16;;;;;;;4.32;3.13;;;17.80;99.90;;;;;;5043259;28;20016;-65
2023/09/06 01:19:47;;;;;;;4.53;2.97;;;17.80;99.90;;;;;;5035204;28;20152;-65
2023/09/06 01:22:26;;;;;;;4.22;3.45;;;17.70;99.90;;;;;;5023922;28;20024;-65
2023/09/06 01:24:52;;;;;;;4.22;3.22;;;17.70;99.90;;;;;;5039630;28;20041;-65
2023/09/06 01:27:19;;;;;;;5.70;2.70;;;17.60;99.90;;;;;;5042306;28;20025;-65
2023/09/06 01:29:45;;;;;;;3.40;2.85;;;17.60;99.90;;;;;;5039611;28;20067;-65
2023/09/06 01:32:10;;;;;;;4.40;3.33;;;17.60;99.90;;;;;;5043648;28;20539;-65
2023/09/06 01:34:37;;;;;;;5.85;3.53;;;17.60;99.90;;;;;;5036533;28;20040;-65
2023/09/06 01:37:03;;;;;;;4.18;3.10;;;17.50;99.90;;;;;;5042835;28;20033;-65
2023/09/06 01:39:29;;;;;;;5.53;3.22;;;17.50;99.90;;;;;;5040558;28;20043;-65
2023/09/06 01:41:55;;;;;;;5.22;3.30;;;17.50;99.90;;;;;;5041424;28;20033;-65
2023/09/06 01:44:21;;;;;;;4.70;3.40;;;17.50;99.90;;;;;;5040104;28;20037;-65
2023/09/06 01:46:46;;;;;;;4.78;3.33;;;17.50;99.90;;;;;;5054686;28;20052;-65
2023/09/06 01:49:12;;;;;;;4.32;3.45;;;17.50;99.90;;;;;;5054532;28;20039;-65
2023/09/06 01:51:38;;;;;;;3.35;3.03;;;17.50;99.90;;;;;;5055386;28;20016;-65
2023/09/06 01:54:06;;;;;;;4.65;2.90;;;17.50;99.90;;;;;;5053481;28;20035;-65
2023/09/06 01:56:31;;;;;;;7.07;3.45;;;17.50;99.90;;;;;;5056566;28;20555;-65
2023/09/06 01:58:57;;;;;;;3.97;2.58;;;17.50;99.90;;;;;;5037331;28;20032;-65
2023/09/06 02:01:23;;;;;;;5.60;2.75;;;17.50;99.90;;;;;;5044630;28;20093;-65
2023/09/06 02:03:49;;;;;;;3.90;2.95;;;17.40;99.90;;;;;;5036853;28;20059;-65
2023/09/06 02:06:16;;;;;;;5.20;3.45;;;17.40;99.90;;;;;;5045096;28;20392;-65
2023/09/06 02:08:42;;;;;;;3.50;2.90;;;17.40;99.90;;;;;;5038065;28;20037;-66
2023/09/06 02:11:08;;;;;;;3.33;2.83;;;17.30;99.90;;;;;;5054956;28;20521;-65
2023/09/06 02:13:34;;;;;;;4.30;2.90;;;17.30;99.90;;;;;;5054374;28;20170;-65
2023/09/06 02:16:00;;;;;;;4.28;3.25;;;17.20;99.90;;;;;;5054263;28;20028;-65
2023/09/06 02:18:27;;;;;;;4.07;3.00;;;17.20;99.90;;;;;;5039756;28;20032;-65
2023/09/06 02:20:55;;;;;;;6.15;3.05;;;17.10;99.90;;;;;;5038464;28;20127;-65
2023/09/06 02:23:21;;;;;;;4.40;3.63;;;17.10;99.90;;;;;;5035728;28;20767;-65
2023/09/06 02:25:47;;;;;;;4.43;3.15;;;17.00;99.90;;;;;;5041565;28;20044;-65
2023/09/06 02:28:14;;;;;;;3.70;3.22;;;17.00;99.90;;;;;;5041246;28;20028;-65
2023/09/06 02:30:41;;;;;;;4.28;3.65;;;17.00;99.90;;;;;;5041081;28;20619;-65
2023/09/06 02:33:10;;;;;;;3.78;3.20;;;16.90;99.90;;;;;;5042270;28;20101;-64
2023/09/06 02:35:40;;;;;;;6.75;3.30;;;16.90;99.90;;;;;;5049109;28;20708;-65
2023/09/06 02:38:10;;;;;;;4.38;3.88;;;16.80;99.90;;;;;;5055645;28;20055;-65
2023/09/06 02:40:36;;;;;;;4.10;3.38;;;16.80;99.90;;;;;;5048985;28;20048;-65
2023/09/06 02:43:04;;;;;;;4.05;3.45;;;16.80;99.90;;;;;;5041365;28;20548;-65
2023/09/06 02:45:36;;;;;;;5.05;3.78;;;16.70;99.90;;;;;;5053762;28;20032;-65
2023/09/06 02:48:16;;;;;;;5.30;3.97;;;16.70;99.90;;;;;;5054970;28;20029;-65
2023/09/06 02:50:44;;;;;;;5.30;3.78;;;16.70;99.90;;;;;;5025625;28;20082;-65
2023/09/06 02:53:19;;;;;;;4.82;4.22;;;16.70;99.90;;;;;;5055481;28;20639;-65
2023/09/06 02:55:51;;;;;;;4.73;4.20;;;16.70;99.90;;;;;;5025705;28;20116;-65
2023/09/06 02:58:18;;;;;;;5.40;3.85;;;16.80;99.90;;;;;;5041556;28;20032;-65
2023/09/06 03:00:48;;;;;;;5.22;4.45;;;16.80;99.90;;;;;;5052432;28;20050;-65
2023/09/06 03:03:16;;;;;;;6.28;4.32;;;16.80;99.90;;;;;;5055922;28;20082;-65
2023/09/06 03:05:42;;;;;;;5.38;4.63;;;16.80;99.90;;;;;;5037965;28;20124;-65
2023/09/06 03:08:14;;;;;;;6.85;5.03;;;16.80;99.90;;;;;;5042274;28;20140;-65
2023/09/06 03:10:41;;;;;;;5.90;4.22;;;16.90;99.90;;;;;;5034725;28;20404;-65
2023/09/06 03:13:10;;;;;;;6.18;4.78;;;16.90;99.90;;;;;;5041860;28;20510;-65
2023/09/06 03:15:43;;;;;;;6.85;4.45;;;17.00;99.90;;;;;;5038276;28;20451;-65
2023/09/06 03:18:10;;;;;;;5.00;4.00;;;17.00;99.90;;;;;;5041895;28;20691;-64
2023/09/06 03:20:45;;;;;;;5.57;4.47;;;17.00;99.90;;;;;;5038404;28;20492;-65
2023/09/06 03:23:23;;;;;;;7.32;4.30;;;17.00;99.90;;;;;;5041142;28;20059;-65
2023/09/06 03:25:58;;;;;;;6.72;4.50;;;17.10;99.90;;;;;;5037626;28;20044;-65
2023/09/06 03:28:29;;;;;;;5.38;4.25;;;17.10;99.90;;;;;;5034232;28;20064;-65
2023/09/06 03:30:58;;;;;;;5.00;4.10;;;17.10;99.90;;;;;;5039142;28;20799;-65
2023/09/06 03:33:25;;;;;;;8.15;5.25;;;17.10;99.90;;;;;;5042259;28;20027;-65
2023/09/06 03:35:51;;;;;;;5.80;4.47;;;17.10;99.90;;;;;;5046533;28;20056;-65
2023/09/06 03:38:19;;;;;;;6.65;4.70;;;17.10;99.90;;;;;;5062194;28;20031;-65
2023/09/06 03:40:45;;;;;;;5.97;4.97;;;17.10;99.90;;;;;;5044521;28;20090;-65
2023/09/06 03:43:19;;;;;;;6.13;4.43;;;17.10;99.90;;;;;;5061218;28;20086;-65
2023/09/06 03:45:51;;;;;;;5.90;4.25;;;17.10;99.90;;;;;;5041062;28;20040;-65
2023/09/06 03:48:20;;;;;;;4.63;4.13;;;17.10;99.90;;;;;;5062228;28;20044;-65
2023/09/06 03:50:57;;;;;;;5.82;4.07;;;17.10;99.90;;;;;;5041767;28;20037;-65
2023/09/06 03:53:25;;;;;;;4.75;4.00;;;17.10;99.90;;;;;;5061750;28;20105;-65
2023/09/06 03:55:52;;;;;;;4.57;4.10;;;17.10;99.90;;;;;;5041545;28;20037;-65
2023/09/06 03:58:18;;;;;;;4.65;4.13;;;17.10;99.90;;;;;;5048743;28;20036;-65
2023/09/06 04:00:44;;;;;;;5.93;4.32;;;17.00;99.90;;;;;;5041466;28;20029;-65
2023/09/06 04:03:22;;;;;;;5.50;4.40;;;17.00;99.90;;;;;;5048355;28;20034;-65
2023/09/06 04:05:50;;;;;;;5.82;4.07;;;17.00;99.90;;;;;;5041294;28;20061;-65
2023/09/06 04:08:17;;;;;;;6.63;4.30;;;17.00;99.90;;;;;;5049349;28;20036;-65
2023/09/06 04:10:45;;;;;;;6.93;4.10;;;16.90;99.90;;;;;;5024556;28;20053;-64
2023/09/06 04:13:13;;;;;;;6.32;4.25;;;16.90;99.90;;;;;;5049485;28;20091;-65
2023/09/06 04:15:42;;;;;;;4.70;4.00;;;16.80;99.90;;;;;;5042316;28;20033;-64
2023/09/06 04:18:10;;;;;;;7.15;4.75;;;16.80;99.90;;;;;;5048268;28;20033;-65
2023/09/06 04:20:39;;;;;;;5.57;4.60;;;16.70;99.90;;;;;;5042472;28;20043;-65
2023/09/06 04:23:12;;;;;;;5.57;4.40;;;16.70;99.90;;;;;;5045318;28;20556;-65
2023/09/06 04:25:41;;;;;;;5.40;4.05;;;16.70;99.90;;;;;;5041640;28;20059;-65
2023/09/06 04:28:10;;;;;;;5.20;4.22;;;16.70;99.90;;;;;;5047363;28;20082;-65
2023/09/06 04:30:38;;;;;;;4.97;3.85;;;16.70;99.90;;;;;;5042029;28;20162;-65
2023/09/06 04:33:12;;;;;;;4.97;4.30;;;16.70;99.90;;;;;;5047577;28;20021;-65
2023/09/06 04:35:44;;;;;;;5.03;3.90;;;16.60;99.90;;;;;;5042541;28;20028;-65
2023/09/06 04:38:12;;;;;;;7.93;4.50;;;16.60;99.90;;;;;;5048865;28;20028;-65
2023/09/06 04:40:39;;;;;;;6.47;4.28;;;16.50;99.90;;;;;;5042628;28;20170;-65
2023/09/06 04:43:07;;;;;;;6.35;4.53;;;16.50;99.90;;;;;;5047480;28;20025;-65
2023/09/06 04:45:33;;;;;;;5.60;4.07;;;16.40;99.90;;;;;;5039259;28;20040;-65
2023/09/06 04:48:00;;;;;;;6.55;4.07;;;16.30;99.90;;;;;;5043989;28;20143;-65
2023/09/06 04:50:26;;;;;;;6.10;4.13;;;16.30;99.90;;;;;;5057203;28;20447;-65
2023/09/06 04:52:52;;;;;;;6.25;4.68;;;16.20;99.90;;;;;;5043001;28;20785;-65
2023/09/06 04:55:20;;;;;;;5.93;4.07;;;16.20;99.90;;;;;;5037494;28;20048;-65
2023/09/06 04:57:49;;;;;;;6.15;4.90;;;16.20;99.90;;;;;;5043541;28;20086;-64
2023/09/06 05:00:18;;;;;;;5.38;4.75;;;16.20;99.90;;;;;;5042484;28;20029;-65
2023/09/06 05:02:45;;;;;;;9.48;5.47;;;16.20;99.90;;;;;;5039962;28;20028;-65
2023/09/06 05:05:13;;;;;;;8.98;6.07;;;16.20;99.90;;;;;;5043197;28;20503;-65
2023/09/06 05:07:40;;;;;;;5.32;4.63;;;16.20;99.90;;;;;;5042708;28;20074;-65
2023/09/06 05:10:06;;;;;;;5.88;5.10;;;16.20;99.90;;;;;;5043140;28;20017;-65
2023/09/06 05:12:33;;;;;;;7.40;5.25;;;16.20;99.90;;;;;;5040072;28;20024;-65
2023/09/06 05:15:00;;;;;;;8.57;6.00;;;16.20;99.90;;;;;;5041947;28;20028;-65
2023/09/06 05:17:26;;;;;;;7.38;5.70;;;16.20;99.90;;;;;;5040872;28;20102;-65
2023/09/06 05:19:53;;;;;;;7.75;5.53;;;16.30;99.90;;;;;;5044100;28;20032;-65
2023/09/06 05:22:19;;;;;;;7.95;5.78;;;16.30;99.90;;;;;;5034809;28;20021;-65
2023/09/06 05:24:46;;;;;;;6.80;5.15;;;16.30;99.90;;;;;;5054953;28;20087;-65
2023/09/06 05:27:13;;;;;;;8.55;5.68;;;16.30;99.90;;;;;;5055372;28;20021;-65
2023/09/06 05:29:39;;;;;;;7.47;5.57;;;16.30;99.90;;;;;;5041515;28;20531;-65
2023/09/06 05:32:05;;;;;;;6.38;5.63;;;16.40;99.90;;;;;;5054398;28;20051;-65
2023/09/06 05:34:32;;;;;;;7.40;5.93;;;16.40;99.90;;;;;;5042961;28;20400;-65
2023/09/06 05:36:58;;;;;;;8.10;5.57;;;16.50;99.90;;;;;;5037784;28;20021;-65
2023/09/06 05:39:23;;;;;;;7.88;5.80;;;16.50;99.90;;;;;;5044399;28;20029;-65
2023/09/06 05:41:50;;;;;;;6.75;5.38;;;16.50;99.90;;;;;;5037761;28;20033;-64
2023/09/06 05:44:16;;;;;;;7.47;5.68;;;16.50;99.90;;;;;;5044421;28;20038;-65
2023/09/06 05:46:43;;;;;;;7.75;5.70;;;16.50;99.90;;;;;;5037459;28;20071;-65
2023/09/06 05:49:12;;;;;;;7.72;5.63;;;16.60;99.90;;;;;;5040020;28;20083;-65
2023/09/06 05:51:43;;;;;;;8.60;6.07;;;16.60;99.90;;;;;;5039882;28;20426;-65
2023/09/06 05:54:10;;;;;;;8.95;5.47;;;16.70;99.90;;;;;;5043887;28;20025;-65
2023/09/06 05:56:37;;;;;;;6.75;5.68;;;16.70;99.90;;;;;;5037356;28;20025;-65
2023/09/06 05:59:05;;;;;;;6.80;5.70;;;16.80;99.90;;;;;;5043306;28;20055;-65
2023/09/06 06:01:30;;;;;;;9.57;6.28;;;16.80;99.90;;;;;;5055288;28;20421;-65
2023/09/06 06:03:56;;;;;;;7.25;5.68;;;16.80;99.90;;;;;;5041779;28;20033;-65
2023/09/06 06:06:22;;;;;;;8.77;6.20;;;16.90;99.90;;;;;;5021734;28;20042;-65
2023/09/06 06:08:49;;;;;;;7.35;5.97;;;16.90;99.90;;;;;;5041251;28;20029;-65
2023/09/06 06:11:15;;;;;;;7.55;6.15;;;17.00;99.90;;;;;;5041076;28;20055;-65
2023/09/06 06:13:40;;;;;;;8.18;6.65;;;17.10;99.90;;;;;;5052936;28;20516;-65
2023/09/06 06:16:08;;;;;;;6.13;5.50;;;17.20;99.90;;;;;;5056435;28;20023;-64
2023/09/06 06:18:34;;;;;;;8.85;6.78;;;17.30;99.90;;;;;;5053227;28;20068;-65
2023/09/06 06:20:59;;;;;;;8.57;6.18;;;17.50;99.90;;;;;;5058322;28;20033;-65
2023/09/06 06:23:26;;;;;;;6.20;5.28;;;17.70;99.90;;;;;;5053997;28;20039;-65
2023/09/06 06:25:52;;;;;;;6.35;5.70;;;17.80;99.90;;;;;;5052659;28;20044;-65
2023/09/06 06:28:18;;;;;;;6.93;5.75;;;17.80;99.90;;;;;;5053779;28;20033;-65
2023/09/06 06:30:44;;;;;;;6.65;5.65;;;17.90;99.90;;;;;;5053857;28;20033;-64
2023/09/06 06:33:09;;;;;;;6.90;5.65;;;17.90;99.90;;;;;;5053423;28;20029;-65
2023/09/06 06:35:35;;;;;;;9.57;6.45;;;18.00;99.90;;;;;;5054908;28;20071;-65
2023/09/06 06:38:02;;;;;;;9.40;6.18;;;18.00;99.90;;;;;;5052670;28;20024;-65
2023/09/06 06:40:27;;;;;;;7.68;6.47;;;18.10;99.90;;;;;;5051277;28;20121;-65
2023/09/06 06:42:53;;;;;;;9.77;6.38;;;18.20;99.90;;;;;;5052278;28;20108;-65
2023/09/06 06:45:19;;;;;;;7.22;5.60;;;18.30;99.90;;;;;;5042430;28;20502;-65
2023/09/06 06:47:45;;;;;;;6.63;5.88;;;18.50;99.90;;;;;;5052972;28;20481;-65
2023/09/06 06:50:10;;;;;;;8.88;7.10;;;18.60;99.90;;;;;;5055004;28;20094;-65
2023/09/06 06:52:37;;;;;;;9.32;6.45;;;18.70;99.90;;;;;;5053621;28;20035;-65
2023/09/06 06:55:06;;;;;;;10.25;6.10;;;18.70;99.90;;;;;;5054205;28;20040;-65
2023/09/06 06:57:33;;;;;;;7.32;5.65;;;18.80;99.90;;;;;;5053918;28;20026;-65
2023/09/06 07:00:00;;;;;;;5.45;4.95;;;19.00;99.90;;;;;;5054077;28;20174;-65
2023/09/06 07:02:26;;;;;;;9.25;6.80;;;19.20;99.90;;;;;;5054580;28;20035;-65
2023/09/06 07:04:52;;;;;;;8.45;6.10;;;19.40;99.90;;;;;;5052795;28;20033;-65
2023/09/06 07:07:17;;;;;;;12.35;6.35;;;19.50;99.90;;;;;;5055252;28;20062;-65
2023/09/06 07:09:44;;;;;;;8.50;5.50;;;19.70;99.90;;;;;;5052107;28;20036;-66
2023/09/06 07:12:10;;;;;;;6.45;4.72;;;19.80;99.90;;;;;;5055803;28;20028;-65
2023/09/06 07:14:36;;;;;;;5.75;5.10;;;20.00;99.90;;;;;;5040047;28;20055;-65
2023/09/06 07:17:02;;;;;;;8.20;4.53;;;20.20;99.90;;;;;;5053825;28;20440;-65
2023/09/06 07:19:28;;;;;;;8.07;5.38;;;20.60;99.90;;;;;;5053262;28;20059;-66
2023/09/06 07:21:54;;;;;;;8.18;4.88;;;20.90;99.90;;;;;;5053213;28;20037;-65
2023/09/06 07:24:20;;;;;;;7.63;5.55;;;21.10;99.80;;;;;;5052688;28;20040;-65
2023/09/06 07:26:45;;;;;;;5.13;4.47;;;21.20;99.40;;;;;;5052542;28;20032;-65
2023/09/06 07:29:11;;;;;;;5.75;4.53;;;21.30;99.40;;;;;;5053040;28;20083;-66
2023/09/06 07:31:37;;;;;;;5.10;4.30;;;21.30;99.60;;;;;;5053469;28;20025;-65
2023/09/06 07:34:03;;;;;;;7.25;5.22;;;21.60;99.60;;;;;;5052327;28;20021;-65
2023/09/06 07:36:29;;;;;;;7.53;4.88;;;21.80;98.50;;;;;;5054953;28;20046;-65
2023/09/06 07:38:57;;;;;;;6.00;4.60;;;21.80;98.30;;;;;;5051888;28;20497;-65
2023/09/06 07:41:22;;;;;;;6.35;5.03;;;21.80;98.30;;;;;;5055719;28;20032;-65
2023/09/06 07:43:48;;;;;;;6.28;4.65;;;21.80;98.20;;;;;;5051687;28;20050;-66
2023/09/06 07:46:14;;;;;;;5.55;4.10;;;21.80;98.10;;;;;;5055270;28;20142;-65
2023/09/06 07:48:40;;;;;;;5.57;4.47;;;21.80;98.00;;;;;;5052027;28;20493;-65
2023/09/06 07:51:06;;;;;;;8.98;5.13;;;21.70;97.50;;;;;;5054101;28;20048;-66
2023/09/06 07:53:33;;;;;;;5.93;4.35;;;21.70;97.60;;;;;;5052831;28;20635;-66
2023/09/06 07:55:58;;;;;;;6.65;4.68;;;21.70;97.80;;;;;;5052109;28;20056;-65
2023/09/06 07:58:24;;;;;;;6.13;4.68;;;21.70;97.30;;;;;;5052610;28;20056;-65
2023/09/06 08:00:51;;;;;;;4.65;3.92;;;21.60;97.50;;;;;;5052879;28;20083;-65
2023/09/06 08:03:16;;;;;;;6.30;4.63;;;21.70;97.60;;;;;;5052771;28;20571;-65
2023/09/06 08:05:42;;;;;;;7.90;5.00;;;21.80;97.40;;;;;;5053617;28;20052;-65
2023/09/06 08:08:09;;;;;;;5.05;3.90;;;21.80;97.20;;;;;;5055322;28;20029;-65
2023/09/06 08:10:36;;;;;;;6.15;4.78;;;21.80;97.50;;;;;;5051910;28;20028;-65
2023/09/06 08:13:03;;;;;;;7.45;4.47;;;21.90;97.40;;;;;;5054408;28;20032;-65
2023/09/06 08:15:33;;;;;;;7.53;4.50;;;22.00;97.30;;;;;;5052734;28;20035;-65
2023/09/06 08:17:59;;;;;;;7.35;4.00;;;22.00;97.30;;;;;;5054236;28;20811;-65
2023/09/06 08:20:25;;;;;;;13.63;4.50;;;22.10;97.00;;;;;;5055803;28;20050;-65
2023/09/06 08:22:51;;;;;;;5.47;3.90;;;22.20;97.00;;;;;;5056146;28;20576;-65
2023/09/06 08:25:18;;;;;;;4.75;4.00;;;22.40;96.70;;;;;;5056787;28;20033;-65
2023/09/06 08:27:44;;;;;;;6.05;4.50;;;22.40;96.50;;;;;;5058985;28;20064;-65
2023/09/06 08:30:12;;;;;;;5.93;4.50;;;22.50;96.50;;;;;;5049278;28;20484;-65
2023/09/06 08:32:39;;;;;;;4.50;4.10;;;22.60;96.40;;;;;;5047492;28;20082;-66
2023/09/06 08:35:07;;;;;;;8.73;4.90;;;22.70;96.00;;;;;;5048566;28;20477;-65
2023/09/06 08:37:35;;;;;;;5.65;3.90;;;22.80;95.70;;;;;;5047545;28;20067;-71
2023/09/06 08:40:05;;;;;;;8.13;4.10;;;22.90;95.80;;;;;;5049255;28;20472;-65
2023/09/06 08:42:33;;;;;;;5.38;4.30;;;23.00;95.40;;;;;;5048049;28;20675;-65
2023/09/06 08:45:01;;;;;;;7.25;4.25;;;23.00;95.60;;;;;;5052396;28;20036;-65
2023/09/06 08:47:28;;;;;;;5.55;4.13;;;23.20;95.90;;;;;;5057667;28;20032;-66
2023/09/06 08:49:54;;;;;;;4.93;4.13;;;23.30;95.70;;;;;;5055254;28;20029;-66
2023/09/06 08:52:20;;;;;;;9.80;4.40;;;23.40;94.60;;;;;;5058589;28;20074;-66
2023/09/06 08:54:48;;;;;;;4.80;4.00;;;23.50;94.50;;;;;;5055297;28;20056;-66
2023/09/06 08:57:15;;;;;;;6.47;4.40;;;23.60;94.30;;;;;;5058870;28;20029;-65
2023/09/06 08:59:41;;;;;;;4.57;3.88;;;23.70;93.60;;;;;;5051569;28;20035;-65
2023/09/06 09:02:10;;;;;;;7.57;4.35;;;23.90;93.00;;;;;;5057451;28;20041;-65
2023/09/06 09:04:42;;;;;;;7.13;4.68;;;24.10;92.60;;;;;;5055594;28;20157;-65
2023/09/06 09:07:12;;;;;;;5.72;3.92;;;24.40;92.20;;;;;;5056281;28;20119;-65
2023/09/06 09:09:56;;;;;;;4.32;3.92;;;24.50;92.00;;;;;;5055137;28;20025;-65
2023/09/06 09:12:26;;;;;;;6.18;4.15;;;24.60;92.00;;;;;;5056571;28;20025;-65
2023/09/06 09:14:54;;;;;;;8.57;4.18;;;24.70;91.60;;;;;;5054868;28;20032;-66
2023/09/06 09:17:24;;;;;;;5.90;4.15;;;24.60;91.80;;;;;;5058379;28;20024;-65
2023/09/06 09:19:52;;;;;;;5.38;4.15;;;24.60;92.10;;;;;;5054613;28;20036;-66
2023/09/06 09:22:36;;;;;;;6.03;3.70;;;24.70;91.60;;;;;;5058008;28;20032;-66
2023/09/06 09:25:04;;;;;;;6.60;4.35;;;24.90;91.50;;;;;;5054377;28;20556;-65
2023/09/06 09:27:32;;;;;;;5.30;3.83;;;25.00;91.10;;;;;;5053439;28;20108;-65
2023/09/06 09:30:02;;;;;;;4.72;4.03;;;25.00;91.60;;;;;;5054796;28;20036;-65
2023/09/06 09:32:28;;;;;;;6.28;4.10;;;25.00;90.90;;;;;;5051465;28;20024;-65
2023/09/06 09:34:54;;;;;;;7.32;3.83;;;25.10;90.80;;;;;;5053807;28;20152;-65
2023/09/06 09:37:29;;;;;;;7.25;4.00;;;25.20;90.50;;;;;;5058186;28;20423;-65
2023/09/06 09:39:56;;;;;;;7.38;3.83;;;25.10;90.50;;;;;;5053885;28;20075;-65
2023/09/06 09:42:21;;;;;;;5.70;3.85;;;25.10;90.80;;;;;;5044103;28;20048;-65
2023/09/06 09:45:00;;;;;;;5.43;3.70;;;25.20;90.30;;;;;;5054363;28;20032;-65
2023/09/06 09:47:28;;;;;;;6.00;3.88;;;25.20;90.00;;;;;;5057699;28;20032;-65
2023/09/06 09:49:55;;;;;;;5.60;3.83;;;25.30;90.00;;;;;;5054139;28;20028;-65
2023/09/06 09:52:25;;;;;;;6.38;3.92;;;25.30;89.30;;;;;;5057572;28;20017;-65
2023/09/06 09:54:51;;;;;;;5.80;3.60;;;25.40;89.30;;;;;;5037799;28;20021;-65
2023/09/06 09:57:21;;;;;;;4.70;3.70;;;25.50;90.10;;;;;;5057171;28;20069;-66
2023/09/06 09:59:49;;;;;;;5.20;3.88;;;25.40;87.40;;;;;;5051748;28;20037;-65
2023/09/06 10:02:16;;;;;;;6.05;4.07;;;25.50;88.90;;;;;;5056590;28;20634;-65
2023/09/06 10:04:44;;;;;;;6.57;3.63;;;25.70;88.30;;;;;;5054496;28;20523;-65
2023/09/06 10:07:14;;;;;;;6.95;4.30;;;25.80;88.10;;;;;;5056143;28;20067;-65
2023/09/06 10:09:40;;;;;;;4.55;3.60;;;26.00;87.60;;;;;;5054458;28;20037;-65
2023/09/06 10:12:11;;;;;;;4.93;3.83;;;26.20;85.90;;;;;;5052050;28;20057;-65
2023/09/06 10:14:41;;;;;;;4.88;3.65;;;26.40;84.70;;;;;;5054581;28;20021;-65
2023/09/06 10:17:08;;;;;;;5.13;3.75;;;26.60;84.90;;;;;;5052341;28;20024;-66
2023/09/06 10:19:38;;;;;;;6.05;3.97;;;26.70;84.30;;;;;;5054746;28;20461;-66
2023/09/06 10:22:07;;;;;;;4.65;4.00;;;26.80;84.60;;;;;;5054564;28;20184;-66
2023/09/06 10:24:35;;;;;;;7.25;3.80;;;26.80;81.10;;;;;;5054449;28;20598;-65
2023/09/06 10:27:02;;;;;;;4.38;3.35;;;26.80;80.20;;;;;;5054410;28;20124;-65
2023/09/06 10:29:30;;;;;;;8.77;4.00;;;26.90;82.20;;;;;;5055353;28;20028;-65
2023/09/06 10:32:03;;;;;;;5.30;3.72;;;27.00;80.40;;;;;;5041300;28;20519;-65
2023/09/06 10:34:32;;;;;;;4.63;3.67;;;27.00;79.50;;;;;;5055221;28;20557;-65
2023/09/06 10:37:00;;;;;;;5.65;3.60;;;27.20;81.30;;;;;;5053131;28;20127;-65
2023/09/06 10:39:28;;;;;;;4.68;3.25;;;27.20;80.20;;;;;;5055603;28;20033;-65
2023/09/06 10:42:09;;;;;;;4.63;3.38;;;27.40;78.20;;;;;;5042227;28;20452;-65
2023/09/06 10:44:53;;;;;;;4.30;3.25;;;27.50;78.80;;;;;;5052898;28;20039;-66
2023/09/06 10:47:33;;;;;;;3.88;3.35;;;27.60;77.70;;;;;;5056384;28;20077;-66
2023/09/06 10:50:20;;;;;;;6.85;3.20;;;27.60;74.40;;;;;;5051655;28;20143;-66
2023/09/06 10:52:53;;;;;;;5.05;3.42;;;27.60;73.50;;;;;;5051705;28;20021;-66
2023/09/06 10:55:24;;;;;;;5.05;3.60;;;27.60;75.40;;;;;;5035154;28;20033;-65
2023/09/06 10:58:06;;;;;;;4.93;3.47;;;27.60;75.70;;;;;;5054849;28;20600;-65
2023/09/06 11:00:34;;;;;;;4.15;2.85;;;27.60;76.60;;;;;;5053745;28;20086;-65
2023/09/06 11:03:13;;;;;;;4.60;3.33;;;27.60;73.90;;;;;;5050514;28;20444;-65
2023/09/06 11:05:50;;;;;;;5.95;3.47;;;27.70;76.00;;;;;;5053853;28;20447;-65
2023/09/06 11:08:24;;;;;;;6.05;3.28;;;27.80;76.20;;;;;;5056004;28;20032;-65
2023/09/06 11:10:53;;;;;;;4.20;3.40;;;28.00;75.70;;;;;;5051302;28;20091;-65
2023/09/06 11:13:20;;;;;;;10.05;3.10;;;28.00;73.60;;;;;;5055593;28;20274;-65
2023/09/06 11:15:49;;;;;;;5.18;3.10;;;27.90;73.30;;;;;;5049910;28;20029;-65
2023/09/06 11:18:15;;;;;;;5.22;2.85;;;27.90;73.90;;;;;;5043001;28;20484;-66
2023/09/06 11:20:48;;;;;;;6.65;3.00;;;27.90;72.90;;;;;;5052979;28;20090;-65
2023/09/06 11:23:14;;;;;;;7.22;3.00;;;27.80;72.90;;;;;;5054783;28;20438;-65
2023/09/06 11:25:39;;;;;;;5.22;2.92;;;27.90;70.80;;;;;;5053193;28;20714;-65
2023/09/06 11:28:19;;;;;;;4.32;2.83;;;27.80;68.80;;;;;;5050533;28;20120;-65
2023/09/06 11:30:49;;;;;;;3.20;2.53;;;27.80;70.00;;;;;;5052846;28;20481;-65
2023/09/06 11:33:16;;;;;;;4.38;3.10;;;27.80;71.40;;;;;;5055129;28;20020;-65
2023/09/06 11:35:56;;;;;;;7.03;3.70;;;27.80;70.90;;;;;;5031176;28;20031;-65
2023/09/06 11:38:29;;;;;;;3.83;3.10;;;27.90;72.10;;;;;;5055614;28;20450;-65
2023/09/06 11:40:57;;;;;;;3.58;2.88;;;27.90;69.00;;;;;;5052520;28;20447;-65
2023/09/06 11:43:26;;;;;;;4.80;3.13;;;28.00;70.70;;;;;;5055605;28;20799;-65
2023/09/06 11:46:01;;;;;;;3.90;2.50;;;28.10;69.90;;;;;;5052393;28;20079;-66
2023/09/06 11:48:30;;;;;;;5.70;3.28;;;28.10;68.30;;;;;;5055745;28;20635;-65
2023/09/06 11:51:08;;;;;;;4.05;3.05;;;28.10;68.60;;;;;;5052383;28;20033;-65
2023/09/06 11:53:38;;;;;;;5.03;3.10;;;28.10;68.10;;;;;;5049882;28;20548;-65
2023/09/06 11:56:07;;;;;;;4.97;3.03;;;28.00;67.50;;;;;;5056100;28;20040;-65
2023/09/06 11:58:43;;;;;;;10.57;3.10;;;28.10;67.30;;;;;;5053396;28;20127;-65
2023/09/06 12:01:11;;;;;;;4.40;3.58;;;28.00;67.90;;;;;;5056260;28;20074;-65
2023/09/06 12:03:45;;;;;;;4.57;2.78;;;28.00;67.00;;;;;;5058627;28;20127;-65
2023/09/06 12:06:11;;;;;;;3.63;2.83;;;28.10;67.30;;;;;;5055590;28;20068;-65
2023/09/06 12:08:38;;;;;;;4.43;2.80;;;28.10;66.10;;;;;;5042739;28;20071;-65
2023/09/06 12:11:10;;;;;;;5.50;3.20;;;28.20;66.90;;;;;;5055809;28;20711;-65
2023/09/06 12:13:38;;;;;;;3.50;2.58;;;28.20;67.30;;;;;;5052927;28;20531;-65
2023/09/06 12:16:09;;;;;;;3.67;2.60;;;28.20;65.70;;;;;;5055781;28;20032;-65
2023/09/06 12:18:36;;;;;;;3.80;2.88;;;28.20;65.60;;;;;;5053110;28;20115;-65
2023/09/06 12:21:03;;;;;;;2.83;2.58;;;28.20;63.60;;;;;;5039609;28;20032;-66
2023/09/06 12:23:29;;;;;;;3.85;2.65;;;28.30;66.20;;;;;;5059177;28;20035;-65
2023/09/06 12:25:55;;;;;;;4.90;2.45;;;28.40;64.70;;;;;;5055367;28;20029;-65
2023/09/06 12:28:22;;;;;;;2.97;2.55;;;28.40;64.00;;;;;;5058540;28;20128;-65
2023/09/06 12:30:53;;;;;;;4.85;2.92;;;28.40;63.40;;;;;;5055444;28;20524;-66
2023/09/06 12:33:21;;;;;;;5.72;2.97;;;28.30;63.30;;;;;;5058082;28;20033;-66
2023/09/06 12:36:00;;;;;;;8.07;2.90;;;28.30;62.80;;;;;;5056570;28;20439;-65
2023/09/06 12:38:31;;;;;;;3.00;2.70;;;28.40;61.80;;;;;;5056442;28;20061;-65
2023/09/06 12:40:58;;;;;;;5.10;2.72;;;28.50;62.20;;;;;;5041523;28;20044;-66
2023/09/06 12:43:26;;;;;;;4.75;2.70;;;28.50;62.20;;;;;;5057013;28;20966;-65
2023/09/06 12:45:57;;;;;;;4.43;2.80;;;28.60;61.00;;;;;;5054227;28;20452;-65
2023/09/06 12:48:23;;;;;;;5.30;2.70;;;28.60;61.90;;;;;;5056657;28;20032;-65
2023/09/06 12:50:50;;;;;;;3.90;2.92;;;28.50;62.90;;;;;;5055851;28;20124;-66